sensor_id;sensor_type;location;lat;lon;timestamp;P1;durP1;ratioP1;P2;durP2;ratioP2
66521;SDS011;53349;53.538;8.584;2023-04-01T00:02:24;12.73;;;5.93;;
66521;SDS011;53349;53.538;8.584;2023-04-01T00:04:50;15.90;;;6.60;;
66521;SDS011;53349;53.538;8.584;2023-04-01T00:07:15;14.33;;;5.97;;
66521;SDS011;53349;53.538;8.584;2023-04-01T00:09:43;12.65;;;5.72;;
66521;SDS011;53349;53.538;8.584;2023-04-01T00:12:08;12.60;;;5.90;;
66521;SDS011;53349;53.538;8.584;2023-04-01T00:14:33;14.37;;;6.30;;
66521;SDS011;53349;53.538;8.584;2023-04-01T00:17:03;12.70;;;5.93;;
66521;SDS011;53349;53.538;8.584;2023-04-01T00:19:28;14.52;;;5.80;;
66521;SDS011;53349;53.538;8.584;2023-04-01T00:21:54;13.75;;;5.88;;
66521;SDS011;53349;53.538;8.584;2023-04-01T00:24:20;14.30;;;5.82;;
66521;SDS011;53349;53.538;8.584;2023-04-01T00:26:50;13.30;;;5.43;;
66521;SDS011;53349;53.538;8.584;2023-04-01T00:29:18;12.07;;;5.82;;
66521;SDS011;53349;53.538;8.584;2023-04-01T00:31:43;14.07;;;5.97;;
66521;SDS011;53349;53.538;8.584;2023-04-01T00:34:08;12.67;;;5.73;;
66521;SDS011;53349;53.538;8.584;2023-04-01T00:36:35;14.90;;;5.82;;
66521;SDS011;53349;53.538;8.584;2023-04-01T00:39:00;13.80;;;5.57;;
66521;SDS011;53349;53.538;8.584;2023-04-01T00:41:26;11.32;;;5.45;;
66521;SDS011;53349;53.538;8.584;2023-04-01T00:43:52;11.47;;;5.77;;
66521;SDS011;53349;53.538;8.584;2023-04-01T00:46:19;11.13;;;5.33;;
66521;SDS011;53349;53.538;8.584;2023-04-01T00:48:51;11.35;;;5.50;;
66521;SDS011;53349;53.538;8.584;2023-04-01T00:51:22;12.52;;;5.25;;
66521;SDS011;53349;53.538;8.584;2023-04-01T00:53:51;11.57;;;5.43;;
66521;SDS011;53349;53.538;8.584;2023-04-01T00:56:19;12.50;;;5.75;;
66521;SDS011;53349;53.538;8.584;2023-04-01T00:58:54;12.13;;;5.57;;
66521;SDS011;53349;53.538;8.584;2023-04-01T01:01:23;11.35;;;5.43;;
66521;SDS011;53349;53.538;8.584;2023-04-01T01:03:52;11.38;;;5.47;;
66521;SDS011;53349;53.538;8.584;2023-04-01T01:17:03;10.38;;;5.25;;
66521;SDS011;53349;53.538;8.584;2023-04-01T01:24:55;15.75;;;5.55;;
66521;SDS011;53349;53.538;8.584;2023-04-01T01:27:34;14.77;;;6.53;;
66521;SDS011;53349;53.538;8.584;2023-04-01T01:38:31;14.27;;;6.55;;
66521;SDS011;53349;53.538;8.584;2023-04-01T01:40:59;15.57;;;6.38;;
66521;SDS011;53349;53.538;8.584;2023-04-01T01:43:31;14.70;;;7.25;;
66521;SDS011;53349;53.538;8.584;2023-04-01T01:46:08;14.10;;;6.40;;
66521;SDS011;53349;53.538;8.584;2023-04-01T01:48:39;15.15;;;6.88;;
66521;SDS011;53349;53.538;8.584;2023-04-01T01:51:10;13.32;;;6.43;;
66521;SDS011;53349;53.538;8.584;2023-04-01T01:53:36;15.93;;;6.68;;
66521;SDS011;53349;53.538;8.584;2023-04-01T01:56:02;17.03;;;7.53;;
66521;SDS011;53349;53.538;8.584;2023-04-01T01:58:31;16.30;;;6.97;;
66521;SDS011;53349;53.538;8.584;2023-04-01T02:01:05;15.45;;;7.00;;
66521;SDS011;53349;53.538;8.584;2023-04-01T02:03:38;16.45;;;7.22;;
66521;SDS011;53349;53.538;8.584;2023-04-01T02:06:09;16.48;;;7.18;;
66521;SDS011;53349;53.538;8.584;2023-04-01T02:11:24;15.10;;;7.03;;
66521;SDS011;53349;53.538;8.584;2023-04-01T02:13:58;17.42;;;7.55;;
66521;SDS011;53349;53.538;8.584;2023-04-01T02:16:28;16.73;;;7.40;;
66521;SDS011;53349;53.538;8.584;2023-04-01T02:18:58;18.17;;;7.80;;
66521;SDS011;53349;53.538;8.584;2023-04-01T02:21:27;17.58;;;7.43;;
66521;SDS011;53349;53.538;8.584;2023-04-01T02:23:56;18.67;;;7.93;;
66521;SDS011;53349;53.538;8.584;2023-04-01T02:26:24;17.35;;;7.47;;
66521;SDS011;53349;53.538;8.584;2023-04-01T02:28:52;19.40;;;7.40;;
66521;SDS011;53349;53.538;8.584;2023-04-01T02:31:19;15.45;;;7.43;;
66521;SDS011;53349;53.538;8.584;2023-04-01T02:33:47;16.90;;;7.55;;
66521;SDS011;53349;53.538;8.584;2023-04-01T02:36:13;14.55;;;7.38;;
66521;SDS011;53349;53.538;8.584;2023-04-01T02:38:40;16.60;;;7.20;;
66521;SDS011;53349;53.538;8.584;2023-04-01T02:41:06;14.15;;;6.75;;
66521;SDS011;53349;53.538;8.584;2023-04-01T02:43:35;16.15;;;7.10;;
66521;SDS011;53349;53.538;8.584;2023-04-01T02:46:02;17.55;;;7.00;;
66521;SDS011;53349;53.538;8.584;2023-04-01T02:48:32;14.60;;;6.82;;
66521;SDS011;53349;53.538;8.584;2023-04-01T02:50:58;14.40;;;6.70;;
66521;SDS011;53349;53.538;8.584;2023-04-01T02:53:26;18.00;;;6.97;;
66521;SDS011;53349;53.538;8.584;2023-04-01T02:55:52;17.30;;;7.20;;
66521;SDS011;53349;53.538;8.584;2023-04-01T02:58:19;16.77;;;7.33;;
66521;SDS011;53349;53.538;8.584;2023-04-01T03:00:44;16.87;;;7.13;;
66521;SDS011;53349;53.538;8.584;2023-04-01T03:03:12;16.27;;;7.55;;
66521;SDS011;53349;53.538;8.584;2023-04-01T03:05:39;18.15;;;8.30;;
66521;SDS011;53349;53.538;8.584;2023-04-01T03:08:04;17.50;;;7.33;;
66521;SDS011;53349;53.538;8.584;2023-04-01T03:10:33;16.80;;;7.05;;
66521;SDS011;53349;53.538;8.584;2023-04-01T03:12:59;21.05;;;8.55;;
66521;SDS011;53349;53.538;8.584;2023-04-01T03:15:24;20.30;;;8.03;;
66521;SDS011;53349;53.538;8.584;2023-04-01T03:17:51;17.33;;;7.70;;
66521;SDS011;53349;53.538;8.584;2023-04-01T03:20:18;16.80;;;7.88;;
66521;SDS011;53349;53.538;8.584;2023-04-01T03:22:43;20.85;;;8.05;;
66521;SDS011;53349;53.538;8.584;2023-04-01T03:25:10;18.07;;;7.83;;
66521;SDS011;53349;53.538;8.584;2023-04-01T03:27:35;17.83;;;7.65;;
66521;SDS011;53349;53.538;8.584;2023-04-01T03:30:03;18.00;;;7.63;;
66521;SDS011;53349;53.538;8.584;2023-04-01T03:32:29;19.40;;;7.53;;
66521;SDS011;53349;53.538;8.584;2023-04-01T03:34:56;17.03;;;7.87;;
66521;SDS011;53349;53.538;8.584;2023-04-01T03:37:23;19.38;;;7.63;;
66521;SDS011;53349;53.538;8.584;2023-04-01T03:39:49;16.73;;;7.18;;
66521;SDS011;53349;53.538;8.584;2023-04-01T03:42:17;18.67;;;7.67;;
66521;SDS011;53349;53.538;8.584;2023-04-01T03:44:42;17.33;;;7.30;;
66521;SDS011;53349;53.538;8.584;2023-04-01T03:47:07;19.57;;;8.17;;
66521;SDS011;53349;53.538;8.584;2023-04-01T03:49:32;17.63;;;7.07;;
66521;SDS011;53349;53.538;8.584;2023-04-01T03:52:03;20.47;;;7.10;;
66521;SDS011;53349;53.538;8.584;2023-04-01T03:54:31;17.98;;;7.20;;
66521;SDS011;53349;53.538;8.584;2023-04-01T03:56:57;16.83;;;7.20;;
66521;SDS011;53349;53.538;8.584;2023-04-01T03:59:22;17.23;;;7.40;;
66521;SDS011;53349;53.538;8.584;2023-04-01T04:01:47;14.87;;;6.70;;
66521;SDS011;53349;53.538;8.584;2023-04-01T04:04:13;17.80;;;7.90;;
66521;SDS011;53349;53.538;8.584;2023-04-01T04:06:38;15.80;;;7.30;;
66521;SDS011;53349;53.538;8.584;2023-04-01T04:09:05;17.07;;;7.30;;
66521;SDS011;53349;53.538;8.584;2023-04-01T04:11:31;16.55;;;6.65;;
66521;SDS011;53349;53.538;8.584;2023-04-01T04:13:58;15.77;;;6.88;;
66521;SDS011;53349;53.538;8.584;2023-04-01T04:16:28;17.27;;;7.45;;
66521;SDS011;53349;53.538;8.584;2023-04-01T04:18:56;15.85;;;6.65;;
66521;SDS011;53349;53.538;8.584;2023-04-01T04:21:23;14.38;;;6.60;;
66521;SDS011;53349;53.538;8.584;2023-04-01T04:23:48;16.10;;;7.30;;
66521;SDS011;53349;53.538;8.584;2023-04-01T04:26:14;16.10;;;7.00;;
66521;SDS011;53349;53.538;8.584;2023-04-01T04:28:41;14.93;;;6.80;;
66521;SDS011;53349;53.538;8.584;2023-04-01T04:31:07;14.68;;;7.00;;
66521;SDS011;53349;53.538;8.584;2023-04-01T04:33:35;15.68;;;6.57;;
66521;SDS011;53349;53.538;8.584;2023-04-01T04:36:04;14.93;;;5.93;;
66521;SDS011;53349;53.538;8.584;2023-04-01T04:38:31;14.15;;;6.00;;
66521;SDS011;53349;53.538;8.584;2023-04-01T04:40:56;14.33;;;6.07;;
66521;SDS011;53349;53.538;8.584;2023-04-01T04:43:22;14.83;;;5.90;;
66521;SDS011;53349;53.538;8.584;2023-04-01T04:45:50;14.40;;;5.32;;
66521;SDS011;53349;53.538;8.584;2023-04-01T04:48:16;13.02;;;5.10;;
66521;SDS011;53349;53.538;8.584;2023-04-01T04:50:42;13.95;;;5.63;;
66521;SDS011;53349;53.538;8.584;2023-04-01T04:53:13;13.37;;;5.80;;
66521;SDS011;53349;53.538;8.584;2023-04-01T04:55:47;15.07;;;5.97;;
66521;SDS011;53349;53.538;8.584;2023-04-01T04:58:14;15.83;;;6.13;;
66521;SDS011;53349;53.538;8.584;2023-04-01T05:00:39;16.08;;;7.57;;
66521;SDS011;53349;53.538;8.584;2023-04-01T05:03:05;15.10;;;6.93;;
66521;SDS011;53349;53.538;8.584;2023-04-01T05:05:33;15.68;;;6.20;;
66521;SDS011;53349;53.538;8.584;2023-04-01T05:07:59;15.88;;;6.20;;
66521;SDS011;53349;53.538;8.584;2023-04-01T05:10:31;16.92;;;7.20;;
66521;SDS011;53349;53.538;8.584;2023-04-01T05:12:57;18.17;;;7.07;;
66521;SDS011;53349;53.538;8.584;2023-04-01T05:15:23;14.55;;;6.03;;
66521;SDS011;53349;53.538;8.584;2023-04-01T05:17:50;14.45;;;5.88;;
66521;SDS011;53349;53.538;8.584;2023-04-01T05:20:15;16.10;;;6.25;;
66521;SDS011;53349;53.538;8.584;2023-04-01T05:22:42;15.43;;;6.10;;
66521;SDS011;53349;53.538;8.584;2023-04-01T05:25:08;15.03;;;6.03;;
66521;SDS011;53349;53.538;8.584;2023-04-01T05:27:35;15.65;;;6.63;;
66521;SDS011;53349;53.538;8.584;2023-04-01T05:30:00;14.83;;;6.10;;
66521;SDS011;53349;53.538;8.584;2023-04-01T05:32:26;16.60;;;6.40;;
66521;SDS011;53349;53.538;8.584;2023-04-01T05:34:51;15.88;;;6.47;;
66521;SDS011;53349;53.538;8.584;2023-04-01T05:37:17;16.58;;;6.35;;
66521;SDS011;53349;53.538;8.584;2023-04-01T05:39:43;14.30;;;5.82;;
66521;SDS011;53349;53.538;8.584;2023-04-01T05:42:09;13.80;;;6.07;;
66521;SDS011;53349;53.538;8.584;2023-04-01T05:44:35;14.23;;;6.20;;
66521;SDS011;53349;53.538;8.584;2023-04-01T05:47:02;15.02;;;6.38;;
66521;SDS011;53349;53.538;8.584;2023-04-01T05:49:28;16.23;;;6.95;;
66521;SDS011;53349;53.538;8.584;2023-04-01T05:51:53;13.40;;;5.50;;
66521;SDS011;53349;53.538;8.584;2023-04-01T05:54:20;12.63;;;5.60;;
66521;SDS011;53349;53.538;8.584;2023-04-01T05:56:45;12.48;;;5.05;;
66521;SDS011;53349;53.538;8.584;2023-04-01T05:59:11;12.37;;;4.93;;
66521;SDS011;53349;53.538;8.584;2023-04-01T06:01:37;13.20;;;5.45;;
66521;SDS011;53349;53.538;8.584;2023-04-01T06:04:02;12.90;;;5.32;;
66521;SDS011;53349;53.538;8.584;2023-04-01T06:06:28;12.10;;;5.30;;
66521;SDS011;53349;53.538;8.584;2023-04-01T06:08:56;13.10;;;5.75;;
66521;SDS011;53349;53.538;8.584;2023-04-01T06:11:27;16.23;;;5.65;;
66521;SDS011;53349;53.538;8.584;2023-04-01T06:14:02;17.57;;;7.80;;
66521;SDS011;53349;53.538;8.584;2023-04-01T06:22:33;10.07;;;4.45;;
66521;SDS011;53349;53.538;8.584;2023-04-01T06:25:31;6.75;;;2.72;;
66521;SDS011;53349;53.538;8.584;2023-04-01T06:30:55;4.63;;;2.00;;
66521;SDS011;53349;53.538;8.584;2023-04-01T06:33:43;7.47;;;2.70;;
66521;SDS011;53349;53.538;8.584;2023-04-01T06:49:48;6.38;;;2.00;;
66521;SDS011;53349;53.538;8.584;2023-04-01T06:57:52;4.22;;;1.98;;
66521;SDS011;53349;53.538;8.584;2023-04-01T07:00:26;4.05;;;1.83;;
66521;SDS011;53349;53.538;8.584;2023-04-01T07:05:53;4.78;;;1.90;;
66521;SDS011;53349;53.538;8.584;2023-04-01T07:08:23;4.37;;;1.70;;
66521;SDS011;53349;53.538;8.584;2023-04-01T07:13:31;4.60;;;1.88;;
66521;SDS011;53349;53.538;8.584;2023-04-01T07:16:29;4.20;;;1.45;;
66521;SDS011;53349;53.538;8.584;2023-04-01T07:21:56;3.60;;;1.27;;
66521;SDS011;53349;53.538;8.584;2023-04-01T07:24:44;3.28;;;1.30;;
66521;SDS011;53349;53.538;8.584;2023-04-01T07:27:12;3.90;;;1.30;;
66521;SDS011;53349;53.538;8.584;2023-04-01T07:29:39;6.88;;;1.73;;
66521;SDS011;53349;53.538;8.584;2023-04-01T07:32:09;4.83;;;1.70;;
66521;SDS011;53349;53.538;8.584;2023-04-01T07:40:01;4.07;;;1.40;;
66521;SDS011;53349;53.538;8.584;2023-04-01T07:51:49;4.28;;;1.40;;
66521;SDS011;53349;53.538;8.584;2023-04-01T08:05:47;5.18;;;1.23;;
66521;SDS011;53349;53.538;8.584;2023-04-01T08:11:17;2.60;;;0.97;;
66521;SDS011;53349;53.538;8.584;2023-04-01T08:13:57;3.05;;;1.10;;
66521;SDS011;53349;53.538;8.584;2023-04-01T08:16:29;5.13;;;1.20;;
66521;SDS011;53349;53.538;8.584;2023-04-01T08:22:23;2.78;;;1.20;;
66521;SDS011;53349;53.538;8.584;2023-04-01T08:24:54;4.20;;;1.27;;
66521;SDS011;53349;53.538;8.584;2023-04-01T08:27:23;2.72;;;1.00;;
66521;SDS011;53349;53.538;8.584;2023-04-01T08:29:56;4.43;;;1.40;;
66521;SDS011;53349;53.538;8.584;2023-04-01T08:32:32;2.30;;;0.82;;
66521;SDS011;53349;53.538;8.584;2023-04-01T08:35:07;3.50;;;0.90;;
66521;SDS011;53349;53.538;8.584;2023-04-01T08:38:04;3.13;;;1.10;;
66521;SDS011;53349;53.538;8.584;2023-04-01T08:55:35;3.70;;;1.40;;
66521;SDS011;53349;53.538;8.584;2023-04-01T09:04:57;2.40;;;0.70;;
66521;SDS011;53349;53.538;8.584;2023-04-01T09:07:51;2.30;;;0.73;;
66521;SDS011;53349;53.538;8.584;2023-04-01T09:10:34;2.05;;;0.80;;
66521;SDS011;53349;53.538;8.584;2023-04-01T09:22:13;4.53;;;1.37;;
66521;SDS011;53349;53.538;8.584;2023-04-01T09:33:48;5.10;;;1.20;;
66521;SDS011;53349;53.538;8.584;2023-04-01T09:39:26;3.65;;;1.10;;
66521;SDS011;53349;53.538;8.584;2023-04-01T09:42:07;2.50;;;1.00;;
66521;SDS011;53349;53.538;8.584;2023-04-01T09:44:58;2.58;;;0.75;;
66521;SDS011;53349;53.538;8.584;2023-04-01T09:53:30;2.92;;;0.98;;
66521;SDS011;53349;53.538;8.584;2023-04-01T10:39:08;2.50;;;0.93;;
66521;SDS011;53349;53.538;8.584;2023-04-01T10:48:19;3.57;;;1.23;;
66521;SDS011;53349;53.538;8.584;2023-04-01T10:59:32;2.25;;;0.80;;
66521;SDS011;53349;53.538;8.584;2023-04-01T11:10:47;3.38;;;0.98;;
66521;SDS011;53349;53.538;8.584;2023-04-01T11:16:43;3.50;;;1.17;;
66521;SDS011;53349;53.538;8.584;2023-04-01T11:22:56;2.38;;;0.88;;
66521;SDS011;53349;53.538;8.584;2023-04-01T11:31:33;3.20;;;0.90;;
66521;SDS011;53349;53.538;8.584;2023-04-01T11:34:32;3.72;;;0.95;;
66521;SDS011;53349;53.538;8.584;2023-04-01T11:37:43;3.10;;;1.00;;
66521;SDS011;53349;53.538;8.584;2023-04-01T11:40:27;2.97;;;1.20;;
66521;SDS011;53349;53.538;8.584;2023-04-01T11:43:13;3.83;;;1.60;;
66521;SDS011;53349;53.538;8.584;2023-04-01T11:46:02;3.20;;;1.00;;
66521;SDS011;53349;53.538;8.584;2023-04-01T12:08:53;2.08;;;0.60;;
66521;SDS011;53349;53.538;8.584;2023-04-01T12:11:36;3.65;;;0.88;;
66521;SDS011;53349;53.538;8.584;2023-04-01T12:22:15;3.78;;;1.23;;
66521;SDS011;53349;53.538;8.584;2023-04-01T12:29:53;5.53;;;1.70;;
66521;SDS011;53349;53.538;8.584;2023-04-01T12:38:38;2.88;;;1.20;;
66521;SDS011;53349;53.538;8.584;2023-04-01T12:47:03;4.53;;;1.55;;
66521;SDS011;53349;53.538;8.584;2023-04-01T12:55:44;7.15;;;2.60;;
66521;SDS011;53349;53.538;8.584;2023-04-01T13:01:01;9.35;;;4.20;;
66521;SDS011;53349;53.538;8.584;2023-04-01T13:09:07;7.03;;;3.00;;
66521;SDS011;53349;53.538;8.584;2023-04-01T13:17:08;7.10;;;2.97;;
66521;SDS011;53349;53.538;8.584;2023-04-01T13:25:01;10.67;;;3.70;;
66521;SDS011;53349;53.538;8.584;2023-04-01T13:27:54;9.52;;;3.63;;
66521;SDS011;53349;53.538;8.584;2023-04-01T13:30:29;10.27;;;3.42;;
66521;SDS011;53349;53.538;8.584;2023-04-01T13:33:13;7.70;;;3.40;;
66521;SDS011;53349;53.538;8.584;2023-04-01T13:41:22;13.27;;;4.50;;
66521;SDS011;53349;53.538;8.584;2023-04-01T13:44:29;13.25;;;4.43;;
66521;SDS011;53349;53.538;8.584;2023-04-01T13:47:08;10.43;;;4.00;;
66521;SDS011;53349;53.538;8.584;2023-04-01T13:49:41;9.95;;;3.95;;
66521;SDS011;53349;53.538;8.584;2023-04-01T13:55:39;10.45;;;3.75;;
66521;SDS011;53349;53.538;8.584;2023-04-01T13:58:21;8.95;;;3.90;;
66521;SDS011;53349;53.538;8.584;2023-04-01T14:01:00;7.93;;;3.67;;
66521;SDS011;53349;53.538;8.584;2023-04-01T14:04:12;9.88;;;3.22;;
66521;SDS011;53349;53.538;8.584;2023-04-01T14:07:08;10.13;;;3.70;;
66521;SDS011;53349;53.538;8.584;2023-04-01T14:18:37;10.75;;;4.10;;
66521;SDS011;53349;53.538;8.584;2023-04-01T14:21:21;9.27;;;3.33;;
66521;SDS011;53349;53.538;8.584;2023-04-01T14:26:55;11.10;;;4.32;;
66521;SDS011;53349;53.538;8.584;2023-04-01T14:35:11;12.70;;;4.82;;
66521;SDS011;53349;53.538;8.584;2023-04-01T14:46:45;10.65;;;3.65;;
66521;SDS011;53349;53.538;8.584;2023-04-01T14:49:36;10.82;;;3.65;;
66521;SDS011;53349;53.538;8.584;2023-04-01T14:52:31;9.37;;;3.53;;
66521;SDS011;53349;53.538;8.584;2023-04-01T14:55:00;10.43;;;3.30;;
66521;SDS011;53349;53.538;8.584;2023-04-01T15:05:39;8.97;;;3.50;;
66521;SDS011;53349;53.538;8.584;2023-04-01T15:08:51;8.50;;;3.08;;
66521;SDS011;53349;53.538;8.584;2023-04-01T15:14:49;8.15;;;3.17;;
66521;SDS011;53349;53.538;8.584;2023-04-01T15:17:48;7.32;;;3.20;;
66521;SDS011;53349;53.538;8.584;2023-04-01T15:20:49;7.27;;;3.60;;
66521;SDS011;53349;53.538;8.584;2023-04-01T15:23:25;8.98;;;3.20;;
66521;SDS011;53349;53.538;8.584;2023-04-01T15:34:38;7.50;;;2.70;;
66521;SDS011;53349;53.538;8.584;2023-04-01T15:37:29;6.85;;;3.28;;
66521;SDS011;53349;53.538;8.584;2023-04-01T15:40:27;10.40;;;3.25;;
66521;SDS011;53349;53.538;8.584;2023-04-01T15:43:24;10.13;;;3.15;;
66521;SDS011;53349;53.538;8.584;2023-04-01T15:54:59;9.88;;;4.07;;
66521;SDS011;53349;53.538;8.584;2023-04-01T16:09:20;10.02;;;3.38;;
66521;SDS011;53349;53.538;8.584;2023-04-01T16:12:17;9.90;;;2.97;;
66521;SDS011;53349;53.538;8.584;2023-04-01T16:23:02;8.50;;;3.13;;
66521;SDS011;53349;53.538;8.584;2023-04-01T16:26:08;8.77;;;3.20;;
66521;SDS011;53349;53.538;8.584;2023-04-01T16:28:57;10.60;;;3.65;;
66521;SDS011;53349;53.538;8.584;2023-04-01T16:35:01;8.13;;;2.78;;
66521;SDS011;53349;53.538;8.584;2023-04-01T16:37:40;10.30;;;3.35;;
66521;SDS011;53349;53.538;8.584;2023-04-01T16:49:17;10.70;;;3.33;;
66521;SDS011;53349;53.538;8.584;2023-04-01T16:52:16;9.05;;;3.50;;
66521;SDS011;53349;53.538;8.584;2023-04-01T16:55:01;11.27;;;3.40;;
66521;SDS011;53349;53.538;8.584;2023-04-01T17:00:30;10.30;;;3.50;;
66521;SDS011;53349;53.538;8.584;2023-04-01T17:08:30;12.40;;;3.35;;
66521;SDS011;53349;53.538;8.584;2023-04-01T17:16:53;8.25;;;3.85;;
66521;SDS011;53349;53.538;8.584;2023-04-01T17:19:30;10.85;;;3.38;;
66521;SDS011;53349;53.538;8.584;2023-04-01T17:22:10;10.90;;;3.53;;
66521;SDS011;53349;53.538;8.584;2023-04-01T17:25:01;10.20;;;3.55;;
66521;SDS011;53349;53.538;8.584;2023-04-01T17:35:39;11.18;;;3.65;;
66521;SDS011;53349;53.538;8.584;2023-04-01T17:38:23;10.70;;;3.55;;
66521;SDS011;53349;53.538;8.584;2023-04-01T17:43:34;9.15;;;3.25;;
66521;SDS011;53349;53.538;8.584;2023-04-01T17:46:27;10.80;;;3.72;;
66521;SDS011;53349;53.538;8.584;2023-04-01T17:49:38;9.63;;;3.85;;
66521;SDS011;53349;53.538;8.584;2023-04-01T18:00:51;10.82;;;3.20;;
66521;SDS011;53349;53.538;8.584;2023-04-01T18:03:42;8.75;;;2.47;;
66521;SDS011;53349;53.538;8.584;2023-04-01T18:09:00;7.53;;;2.70;;
66521;SDS011;53349;53.538;8.584;2023-04-01T18:17:45;10.30;;;3.45;;
66521;SDS011;53349;53.538;8.584;2023-04-01T18:20:24;8.68;;;2.75;;
66521;SDS011;53349;53.538;8.584;2023-04-01T18:25:39;6.28;;;2.28;;
66521;SDS011;53349;53.538;8.584;2023-04-01T18:31:11;6.28;;;2.65;;
66521;SDS011;53349;53.538;8.584;2023-04-01T18:33:46;6.15;;;1.92;;
66521;SDS011;53349;53.538;8.584;2023-04-01T18:39:37;11.45;;;2.63;;
66521;SDS011;53349;53.538;8.584;2023-04-01T18:45:32;7.82;;;2.92;;
66521;SDS011;53349;53.538;8.584;2023-04-01T18:48:14;8.60;;;2.80;;
66521;SDS011;53349;53.538;8.584;2023-04-01T18:54:05;9.60;;;2.72;;
66521;SDS011;53349;53.538;8.584;2023-04-01T18:57:13;7.88;;;2.78;;
66521;SDS011;53349;53.538;8.584;2023-04-01T18:59:45;7.18;;;2.75;;
66521;SDS011;53349;53.538;8.584;2023-04-01T19:05:05;9.13;;;2.80;;
66521;SDS011;53349;53.538;8.584;2023-04-01T19:11:06;12.55;;;3.10;;
66521;SDS011;53349;53.538;8.584;2023-04-01T19:13:50;7.03;;;2.47;;
66521;SDS011;53349;53.538;8.584;2023-04-01T19:25:02;4.60;;;1.98;;
66521;SDS011;53349;53.538;8.584;2023-04-01T19:30:59;8.07;;;2.22;;
66521;SDS011;53349;53.538;8.584;2023-04-01T19:33:52;4.87;;;2.20;;
66521;SDS011;53349;53.538;8.584;2023-04-01T19:36:43;6.95;;;2.22;;
66521;SDS011;53349;53.538;8.584;2023-04-01T19:52:56;7.25;;;2.50;;
66521;SDS011;53349;53.538;8.584;2023-04-01T19:58:16;8.82;;;2.70;;
66521;SDS011;53349;53.538;8.584;2023-04-01T20:00:51;10.97;;;2.57;;
66521;SDS011;53349;53.538;8.584;2023-04-01T20:11:51;7.68;;;2.13;;
66521;SDS011;53349;53.538;8.584;2023-04-01T20:14:57;11.00;;;2.70;;
66521;SDS011;53349;53.538;8.584;2023-04-01T20:17:43;9.05;;;2.20;;
66521;SDS011;53349;53.538;8.584;2023-04-01T20:25:23;6.95;;;1.88;;
66521;SDS011;53349;53.538;8.584;2023-04-01T20:36:42;6.75;;;2.03;;
66521;SDS011;53349;53.538;8.584;2023-04-01T20:39:18;7.38;;;2.05;;
66521;SDS011;53349;53.538;8.584;2023-04-01T20:44:41;10.97;;;2.57;;
66521;SDS011;53349;53.538;8.584;2023-04-01T20:47:21;6.10;;;2.20;;
66521;SDS011;53349;53.538;8.584;2023-04-01T20:53:11;6.38;;;2.05;;
66521;SDS011;53349;53.538;8.584;2023-04-01T21:04:30;8.30;;;2.40;;
66521;SDS011;53349;53.538;8.584;2023-04-01T21:07:34;5.45;;;1.73;;
66521;SDS011;53349;53.538;8.584;2023-04-01T21:10:23;6.88;;;1.70;;
66521;SDS011;53349;53.538;8.584;2023-04-01T21:19:12;4.95;;;1.70;;
66521;SDS011;53349;53.538;8.584;2023-04-01T21:27:13;7.03;;;1.70;;
66521;SDS011;53349;53.538;8.584;2023-04-01T21:30:16;3.42;;;1.42;;
66521;SDS011;53349;53.538;8.584;2023-04-01T21:36:25;8.80;;;2.15;;
66521;SDS011;53349;53.538;8.584;2023-04-01T21:39:43;6.25;;;1.40;;
66521;SDS011;53349;53.538;8.584;2023-04-01T21:42:28;6.37;;;1.70;;
66521;SDS011;53349;53.538;8.584;2023-04-01T21:45:19;5.47;;;1.13;;
66521;SDS011;53349;53.538;8.584;2023-04-01T21:48:27;6.88;;;1.70;;
66521;SDS011;53349;53.538;8.584;2023-04-01T21:51:17;8.52;;;1.80;;
66521;SDS011;53349;53.538;8.584;2023-04-01T22:05:39;8.02;;;1.50;;
66521;SDS011;53349;53.538;8.584;2023-04-01T22:11:04;6.13;;;1.57;;
66521;SDS011;53349;53.538;8.584;2023-04-01T22:13:39;6.75;;;1.98;;
66521;SDS011;53349;53.538;8.584;2023-04-01T22:16:27;4.80;;;1.58;;
66521;SDS011;53349;53.538;8.584;2023-04-01T22:21:54;5.25;;;1.73;;
66521;SDS011;53349;53.538;8.584;2023-04-01T22:27:18;4.70;;;1.55;;
66521;SDS011;53349;53.538;8.584;2023-04-01T22:41:21;5.25;;;1.83;;
66521;SDS011;53349;53.538;8.584;2023-04-01T22:44:17;5.97;;;1.77;;
66521;SDS011;53349;53.538;8.584;2023-04-01T22:50:31;5.05;;;1.83;;
66521;SDS011;53349;53.538;8.584;2023-04-01T22:52:57;4.30;;;1.20;;
66521;SDS011;53349;53.538;8.584;2023-04-01T22:55:45;5.60;;;1.73;;
66521;SDS011;53349;53.538;8.584;2023-04-01T22:58:16;4.40;;;1.60;;
66521;SDS011;53349;53.538;8.584;2023-04-01T23:00:52;3.20;;;1.20;;
66521;SDS011;53349;53.538;8.584;2023-04-01T23:05:54;4.70;;;1.20;;
66521;SDS011;53349;53.538;8.584;2023-04-01T23:11:21;5.10;;;1.53;;
66521;SDS011;53349;53.538;8.584;2023-04-01T23:16:42;5.75;;;1.30;;
66521;SDS011;53349;53.538;8.584;2023-04-01T23:19:37;4.15;;;1.17;;
66521;SDS011;53349;53.538;8.584;2023-04-01T23:22:32;6.68;;;1.55;;
66521;SDS011;53349;53.538;8.584;2023-04-01T23:27:43;3.47;;;1.10;;
66521;SDS011;53349;53.538;8.584;2023-04-01T23:30:46;3.72;;;1.20;;
66521;SDS011;53349;53.538;8.584;2023-04-01T23:33:30;3.30;;;1.08;;
66521;SDS011;53349;53.538;8.584;2023-04-01T23:36:10;3.40;;;1.10;;
66521;SDS011;53349;53.538;8.584;2023-04-01T23:38:38;4.23;;;0.90;;
66521;SDS011;53349;53.538;8.584;2023-04-01T23:41:08;4.22;;;1.10;;
66521;SDS011;53349;53.538;8.584;2023-04-01T23:43:43;6.13;;;1.10;;
66521;SDS011;53349;53.538;8.584;2023-04-01T23:46:13;5.47;;;1.10;;
66521;SDS011;53349;53.538;8.584;2023-04-01T23:48:40;5.70;;;0.80;;
66521;SDS011;53349;53.538;8.584;2023-04-01T23:51:14;3.83;;;1.30;;
66521;SDS011;53349;53.538;8.584;2023-04-01T23:53:45;4.07;;;1.13;;
66521;SDS011;53349;53.538;8.584;2023-04-01T23:56:12;5.18;;;0.90;;
66521;SDS011;53349;53.538;8.584;2023-04-01T23:58:46;2.83;;;0.80;;
